Time,TemperatureF,DewpointF,PressureIn,WindDirection,WindDirectionDegrees,WindSpeedMPH,WindSpeedGustMPH,Humidity,HourlyPrecipIn,Conditions,Clouds,dailyrainin,SolarRadiationWatts/m^2,SoftwareType,DateUTC
2013-04-10 00:02:00,52.7,45.0,30.14,NNE,21,2.0,4.0,76,0.00,,,0.00,0,weatherlink.com 1.10,2013-04-10 07:02:00,
2013-04-10 00:17:00,53.1,45.0,30.14,NW,314,0.0,3.0,75,0.00,,,0.00,0,weatherlink.com 1.10,2013-04-10 07:17:00,
2013-04-10 00:32:00,51.5,45.0,30.14,NE,38,0.0,4.0,77,0.00,,,0.00,0,weatherlink.com 1.10,2013-04-10 07:32:00,
2013-04-10 00:47:00,51.2,45.0,30.14,NE,38,0.0,3.0,78,0.00,,,0.00,0,weatherlink.com 1.10,2013-04-10 07:47:00,
2013-04-10 01:02:00,52.8,46.0,30.14,WNW,301,2.0,3.0,78,0.00,,,0.00,0,weatherlink.com 1.10,2013-04-10 08:02:00,
2013-04-10 01:17:00,52.4,45.0,30.14,West,276,1.0,4.0,77,0.00,,,0.00,0,weatherlink.com 1.10,2013-04-10 08:17:00,
2013-04-10 01:32:00,51.5,45.0,30.14,West,277,1.0,2.0,78,0.00,,,0.00,0,weatherlink.com 1.10,2013-04-10 08:32:00,
2013-04-10 01:47:00,50.9,45.0,30.14,NW,319,0.0,4.0,79,0.00,,,0.00,0,weatherlink.com 1.10,2013-04-10 08:47:00,
2013-04-10 02:03:00,50.1,44.0,30.14,NW,319,0.0,2.0,79,0.00,,,0.00,0,weatherlink.com 1.10,2013-04-10 09:03:00,
2013-04-10 02:17:00,49.3,43.0,30.14,NW,319,2.0,3.0,80,0.00,,,0.00,0,weatherlink.com 1.10,2013-04-10 09:17:00,
2013-04-10 02:32:00,49.4,44.0,30.14,NE,51,2.0,4.0,82,0.00,,,0.00,0,weatherlink.com 1.10,2013-04-10 09:32:00,
2013-04-10 02:47:00,49.6,44.0,30.14,NNE,32,4.0,4.0,82,0.00,,,0.00,0,weatherlink.com 1.10,2013-04-10 09:47:00,
2013-04-10 03:02:00,50.1,45.0,30.14,NE,43,2.0,7.0,82,0.00,,,0.00,0,weatherlink.com 1.10,2013-04-10 10:02:00,
2013-04-10 03:17:00,50.1,45.0,30.14,NE,43,0.0,3.0,81,0.00,,,0.00,0,weatherlink.com 1.10,2013-04-10 10:17:00,
2013-04-10 03:32:00,48.9,44.0,30.14,NE,43,0.0,4.0,82,0.00,,,0.00,0,weatherlink.com 1.10,2013-04-10 10:32:00,
2013-04-10 03:47:00,48.5,44.0,30.14,NE,47,2.0,5.0,83,0.00,,,0.00,0,weatherlink.com 1.10,2013-04-10 10:47:00,
2013-04-10 04:02:00,48.7,44.0,30.14,NE,47,2.0,2.0,83,0.00,,,0.00,0,weatherlink.com 1.10,2013-04-10 11:02:00,
2013-04-10 04:17:00,48.1,43.0,30.14,NE,47,3.0,4.0,83,0.00,,,0.00,0,weatherlink.com 1.10,2013-04-10 11:17:00,
2013-04-10 04:32:00,48.2,43.0,30.14,NE,42,2.0,4.0,83,0.00,,,0.00,0,weatherlink.com 1.10,2013-04-10 11:32:00,
2013-04-10 04:47:00,48.4,44.0,30.14,NE,42,1.0,5.0,83,0.00,,,0.00,0,weatherlink.com 1.10,2013-04-10 11:47:00,
2013-04-10 05:18:00,49.6,45.0,30.14,NE,42,1.0,2.0,84,0.00,,,0.00,0,weatherlink.com 1.10,2013-04-10 12:18:00,
2013-04-10 05:33:00,49.6,45.0,30.15,NE,40,1.0,3.0,83,0.00,,,0.00,0,weatherlink.com 1.10,2013-04-10 12:33:00,
2013-04-10 05:48:00,48.6,44.0,30.15,NE,41,0.0,4.0,83,0.00,,,0.00,0,weatherlink.com 1.10,2013-04-10 12:48:00,
2013-04-10 06:03:00,48.3,43.0,30.16,NE,43,0.0,2.0,83,0.00,,,0.00,0,weatherlink.com 1.10,2013-04-10 13:03:00,
2013-04-10 06:18:00,48.1,43.0,30.16,NE,40,4.0,5.0,83,0.00,,,0.00,0,weatherlink.com 1.10,2013-04-10 13:18:00,
2013-04-10 06:33:00,48.1,44.0,30.17,SSW,196,0.0,5.0,84,0.00,,,0.00,0,weatherlink.com 1.10,2013-04-10 13:33:00,
2013-04-10 06:48:00,47.9,43.0,30.17,SSW,195,0.0,2.0,84,0.00,,,0.00,7,weatherlink.com 1.10,2013-04-10 13:48:00,
2013-04-10 07:03:00,47.8,43.0,30.18,NNE,32,0.0,3.0,84,0.00,,,0.00,14,weatherlink.com 1.10,2013-04-10 14:03:00,
2013-04-10 07:18:00,47.9,43.0,30.18,NNE,32,0.0,3.0,84,0.00,,,0.00,21,weatherlink.com 1.10,2013-04-10 14:18:00,
2013-04-10 07:33:00,48.2,44.0,30.19,NNE,32,0.0,4.0,84,0.00,,,0.00,26,weatherlink.com 1.10,2013-04-10 14:33:00,
2013-04-10 07:48:00,49.0,44.0,30.19,NE,34,5.0,5.0,84,0.00,,,0.00,54,weatherlink.com 1.10,2013-04-10 14:48:00,
2013-04-10 08:03:00,50.0,45.0,30.20,SW,217,0.0,6.0,84,0.00,,,0.00,223,weatherlink.com 1.10,2013-04-10 15:03:00,
2013-04-10 08:18:00,50.5,46.0,30.20,SW,217,0.0,2.0,84,0.00,,,0.00,276,weatherlink.com 1.10,2013-04-10 15:18:00,
2013-04-10 08:33:00,51.3,47.0,30.21,SW,217,0.0,1.0,84,0.00,,,0.00,329,weatherlink.com 1.10,2013-04-10 15:33:00,
2013-04-10 08:48:00,52.8,48.0,30.21,SSW,213,0.0,3.0,83,0.00,,,0.00,378,weatherlink.com 1.10,2013-04-10 15:48:00,
2013-04-10 09:04:00,53.8,49.0,30.20,South,186,0.0,3.0,83,0.00,,,0.00,434,weatherlink.com 1.10,2013-04-10 16:04:00,
2013-04-10 09:19:00,54.9,50.0,30.21,South,190,0.0,3.0,82,0.00,,,0.00,489,weatherlink.com 1.10,2013-04-10 16:19:00,
2013-04-10 09:34:00,54.7,49.0,30.21,West,276,3.0,7.0,80,0.00,,,0.00,538,weatherlink.com 1.10,2013-04-10 16:34:00,
2013-04-10 09:49:00,56.1,50.0,30.21,SSW,207,1.0,3.0,81,0.00,,,0.00,584,weatherlink.com 1.10,2013-04-10 16:49:00,
2013-04-10 10:04:00,56.8,50.0,30.21,SW,232,2.0,5.0,78,0.00,,,0.00,624,weatherlink.com 1.10,2013-04-10 17:04:00,
2013-04-10 10:19:00,56.9,50.0,30.21,SW,225,2.0,8.0,79,0.00,,,0.00,670,weatherlink.com 1.10,2013-04-10 17:19:00,
2013-04-10 10:34:00,59.0,52.0,30.21,West,263,3.0,5.0,77,0.00,,,0.00,710,weatherlink.com 1.10,2013-04-10 17:34:00,
2013-04-10 10:49:00,59.9,52.0,30.20,NW,325,1.0,7.0,75,0.00,,,0.00,754,weatherlink.com 1.10,2013-04-10 17:49:00,
2013-04-10 11:04:00,56.5,49.0,30.21,West,260,1.0,10.0,77,0.00,,,0.00,779,weatherlink.com 1.10,2013-04-10 18:04:00,
2013-04-10 11:19:00,55.4,49.0,30.20,West,269,7.0,12.0,80,0.00,,,0.00,809,weatherlink.com 1.10,2013-04-10 18:19:00,
2013-04-10 11:34:00,55.2,50.0,30.20,WSW,249,3.0,10.0,81,0.00,,,0.00,837,weatherlink.com 1.10,2013-04-10 18:34:00,
2013-04-10 11:49:00,56.2,50.0,30.20,West,270,2.0,13.0,80,0.00,,,0.00,863,weatherlink.com 1.10,2013-04-10 18:49:00,
2013-04-10 12:04:00,56.9,50.0,30.19,West,275,8.0,12.0,79,0.00,,,0.00,882,weatherlink.com 1.10,2013-04-10 19:04:00,
2013-04-10 12:19:00,57.7,51.0,30.19,WSW,238,5.0,13.0,78,0.00,,,0.00,895,weatherlink.com 1.10,2013-04-10 19:19:00,
2013-04-10 12:34:00,57.8,51.0,30.18,West,274,4.0,12.0,78,0.00,,,0.00,907,weatherlink.com 1.10,2013-04-10 19:34:00,
2013-04-10 12:49:00,57.1,51.0,30.19,NW,311,9.0,18.0,79,0.00,,,0.00,911,weatherlink.com 1.10,2013-04-10 19:49:00,
2013-04-10 13:04:00,57.1,50.0,30.18,SW,226,12.0,14.0,78,0.00,,,0.00,919,weatherlink.com 1.10,2013-04-10 20:04:00,
2013-04-10 13:19:00,58.2,51.0,30.17,WNW,296,5.0,14.0,77,0.00,,,0.00,921,weatherlink.com 1.10,2013-04-10 20:19:00,
2013-04-10 13:34:00,58.6,51.0,30.17,West,274,7.0,15.0,77,0.00,,,0.00,918,weatherlink.com 1.10,2013-04-10 20:34:00,
2013-04-10 13:49:00,58.6,51.0,30.16,West,268,13.0,15.0,76,0.00,,,0.00,905,weatherlink.com 1.10,2013-04-10 20:49:00,
2013-04-10 14:04:00,59.2,52.0,30.16,WNW,288,6.0,16.0,77,0.00,,,0.00,891,weatherlink.com 1.10,2013-04-10 21:04:00,
2013-04-10 14:19:00,59.8,52.0,30.16,West,271,8.0,16.0,74,0.00,,,0.00,879,weatherlink.com 1.10,2013-04-10 21:19:00,
2013-04-10 14:35:00,60.0,52.0,30.16,WSW,243,9.0,16.0,74,0.00,,,0.00,865,weatherlink.com 1.10,2013-04-10 21:35:00,
2013-04-10 14:49:00,58.4,51.0,30.16,West,266,10.0,18.0,77,0.00,,,0.00,846,weatherlink.com 1.10,2013-04-10 21:49:00,
2013-04-10 15:04:00,58.3,51.0,30.16,West,279,12.0,18.0,78,0.00,,,0.00,823,weatherlink.com 1.10,2013-04-10 22:04:00,
2013-04-10 15:20:00,58.3,51.0,30.16,WNW,296,9.0,18.0,78,0.00,,,0.00,650,weatherlink.com 1.10,2013-04-10 22:20:00,
2013-04-10 15:35:00,59.3,52.0,30.15,West,262,11.0,16.0,77,0.00,,,0.00,515,weatherlink.com 1.10,2013-04-10 22:35:00,
2013-04-10 15:49:00,57.6,51.0,30.14,West,263,6.0,18.0,78,0.00,,,0.00,670,weatherlink.com 1.10,2013-04-10 22:49:00,
2013-04-10 16:04:00,57.4,51.0,30.14,West,277,14.0,23.0,79,0.00,,,0.00,592,weatherlink.com 1.10,2013-04-10 23:04:00,
2013-04-10 16:19:00,57.4,51.0,30.13,NW,304,6.0,16.0,79,0.00,,,0.00,617,weatherlink.com 1.10,2013-04-10 23:19:00,
2013-04-10 16:34:00,56.8,51.0,30.13,WSW,255,12.0,19.0,80,0.00,,,0.00,605,weatherlink.com 1.10,2013-04-10 23:34:00,
2013-04-10 16:50:00,56.0,50.0,30.13,West,275,10.0,17.0,81,0.00,,,0.00,536,weatherlink.com 1.10,2013-04-10 23:50:00,
2013-04-10 17:05:00,56.9,51.0,30.13,WSW,251,6.0,18.0,80,0.00,,,0.00,499,weatherlink.com 1.10,2013-04-11 00:05:00,
2013-04-10 17:20:00,56.3,51.0,30.13,WSW,242,11.0,17.0,81,0.00,,,0.00,446,weatherlink.com 1.10,2013-04-11 00:20:00,
2013-04-10 17:35:00,55.9,50.0,30.13,West,264,7.0,16.0,81,0.00,,,0.00,399,weatherlink.com 1.10,2013-04-11 00:35:00,
2013-04-10 17:50:00,56.1,51.0,30.12,WNW,295,9.0,16.0,82,0.00,,,0.00,350,weatherlink.com 1.10,2013-04-11 00:50:00,
2013-04-10 18:20:00,55.2,50.0,30.13,SW,232,4.0,16.0,81,0.00,,,0.00,241,weatherlink.com 1.10,2013-04-11 01:20:00,
2013-04-10 18:35:00,55.3,50.0,30.13,NW,307,3.0,14.0,82,0.00,,,0.00,183,weatherlink.com 1.10,2013-04-11 01:35:00,
2013-04-10 18:50:00,55.7,50.0,30.13,WNW,287,8.0,14.0,81,0.00,,,0.00,137,weatherlink.com 1.10,2013-04-11 01:50:00,
2013-04-10 19:05:00,54.1,49.0,30.12,WNW,286,8.0,15.0,83,0.00,,,0.00,76,weatherlink.com 1.10,2013-04-11 02:05:00,
2013-04-10 19:20:00,53.6,49.0,30.12,West,277,6.0,9.0,83,0.00,,,0.00,28,weatherlink.com 1.10,2013-04-11 02:20:00,
2013-04-10 19:35:00,53.1,48.0,30.12,WSW,247,2.0,8.0,84,0.00,,,0.00,14,weatherlink.com 1.10,2013-04-11 02:35:00,
2013-04-10 19:50:00,53.1,48.0,30.13,WNW,298,1.0,7.0,84,0.00,,,0.00,0,weatherlink.com 1.10,2013-04-11 02:50:00,
2013-04-10 20:05:00,52.6,48.0,30.13,WSW,245,5.0,6.0,84,0.00,,,0.00,0,weatherlink.com 1.10,2013-04-11 03:05:00,
2013-04-10 20:20:00,52.2,48.0,30.14,West,279,0.0,2.0,84,0.00,,,0.00,0,weatherlink.com 1.10,2013-04-11 03:20:00,
2013-04-10 20:34:00,51.7,47.0,30.14,ESE,107,0.0,4.0,84,0.00,,,0.00,0,weatherlink.com 1.10,2013-04-11 03:34:00,
2013-04-10 20:49:00,51.3,47.0,30.14,ESE,105,0.0,1.0,84,0.00,,,0.00,0,weatherlink.com 1.10,2013-04-11 03:49:00,
2013-04-10 21:04:00,51.0,46.0,30.13,NW,309,0.0,2.0,84,0.00,,,0.00,0,weatherlink.com 1.10,2013-04-11 04:04:00,
2013-04-10 21:19:00,52.3,48.0,30.13,North,350,1.0,5.0,84,0.00,,,0.00,0,weatherlink.com 1.10,2013-04-11 04:19:00,
2013-04-10 21:34:00,52.1,47.0,30.14,NNW,348,0.0,2.0,84,0.00,,,0.00,0,weatherlink.com 1.10,2013-04-11 04:34:00,
2013-04-10 21:49:00,51.2,47.0,30.15,NNW,348,2.0,2.0,84,0.00,,,0.00,0,weatherlink.com 1.10,2013-04-11 04:49:00,
2013-04-10 22:04:00,50.4,46.0,30.14,North,350,0.0,1.0,84,0.00,,,0.00,0,weatherlink.com 1.10,2013-04-11 05:04:00,
2013-04-10 22:19:00,50.2,46.0,30.14,East,86,3.0,3.0,84,0.00,,,0.00,0,weatherlink.com 1.10,2013-04-11 05:19:00,
2013-04-10 22:34:00,50.2,46.0,30.15,NW,311,2.0,3.0,85,0.00,,,0.00,0,weatherlink.com 1.10,2013-04-11 05:34:00,
2013-04-10 22:49:00,51.2,47.0,30.15,WSW,248,1.0,4.0,84,0.00,,,0.00,0,weatherlink.com 1.10,2013-04-11 05:49:00,
2013-04-10 23:04:00,51.1,46.0,30.14,NNE,27,0.0,3.0,84,0.00,,,0.00,0,weatherlink.com 1.10,2013-04-11 06:04:00,
2013-04-10 23:19:00,50.5,46.0,30.14,NNE,27,0.0,1.0,84,0.00,,,0.00,0,weatherlink.com 1.10,2013-04-11 06:19:00,
2013-04-10 23:34:00,50.7,46.0,30.14,NW,311,5.0,7.0,85,0.00,,,0.00,0,weatherlink.com 1.10,2013-04-11 06:34:00,
2013-04-10 23:49:00,50.9,46.0,30.15,NW,312,1.0,5.0,84,0.00,,,0.00,0,weatherlink.com 1.10,2013-04-11 06:49:00,